sensor_id;sensor_type;location;lat;lon;timestamp;P1;durP1;ratioP1;P2;durP2;ratioP2
22634;SDS011;11484;50.858;4.384;2023-10-13T00:01:56;21.77;;;13.40;;
22634;SDS011;11484;50.858;4.384;2023-10-13T00:04:28;17.60;;;12.82;;
22634;SDS011;11484;50.858;4.384;2023-10-13T00:06:56;19.25;;;12.95;;
22634;SDS011;11484;50.858;4.384;2023-10-13T00:09:25;19.90;;;13.60;;
22634;SDS011;11484;50.858;4.384;2023-10-13T00:11:57;20.60;;;13.60;;
22634;SDS011;11484;50.858;4.384;2023-10-13T00:14:25;20.77;;;15.38;;
22634;SDS011;11484;50.858;4.384;2023-10-13T00:17:00;21.88;;;15.15;;
22634;SDS011;11484;50.858;4.384;2023-10-13T00:19:37;22.10;;;14.40;;
22634;SDS011;11484;50.858;4.384;2023-10-13T00:22:11;24.05;;;15.60;;
22634;SDS011;11484;50.858;4.384;2023-10-13T00:24:38;22.52;;;14.82;;
22634;SDS011;11484;50.858;4.384;2023-10-13T00:27:20;19.95;;;15.02;;
22634;SDS011;11484;50.858;4.384;2023-10-13T00:32:43;23.13;;;15.82;;
22634;SDS011;11484;50.858;4.384;2023-10-13T00:35:11;23.80;;;15.63;;
22634;SDS011;11484;50.858;4.384;2023-10-13T00:37:39;22.45;;;14.80;;
22634;SDS011;11484;50.858;4.384;2023-10-13T00:40:10;24.45;;;15.45;;
22634;SDS011;11484;50.858;4.384;2023-10-13T00:42:54;24.08;;;16.05;;
22634;SDS011;11484;50.858;4.384;2023-10-13T00:45:21;26.02;;;15.57;;
22634;SDS011;11484;50.858;4.384;2023-10-13T00:47:48;26.73;;;15.88;;
22634;SDS011;11484;50.858;4.384;2023-10-13T00:50:22;25.20;;;15.95;;
22634;SDS011;11484;50.858;4.384;2023-10-13T00:52:49;23.35;;;15.38;;
22634;SDS011;11484;50.858;4.384;2023-10-13T00:55:18;24.60;;;17.35;;
22634;SDS011;11484;50.858;4.384;2023-10-13T00:57:56;27.65;;;16.90;;
22634;SDS011;11484;50.858;4.384;2023-10-13T01:00:27;26.92;;;17.00;;
22634;SDS011;11484;50.858;4.384;2023-10-13T01:02:53;24.20;;;16.50;;
22634;SDS011;11484;50.858;4.384;2023-10-13T01:05:21;23.98;;;15.93;;
22634;SDS011;11484;50.858;4.384;2023-10-13T01:07:50;27.35;;;17.27;;
22634;SDS011;11484;50.858;4.384;2023-10-13T01:10:26;29.10;;;17.50;;
22634;SDS011;11484;50.858;4.384;2023-10-13T01:12:52;27.38;;;17.77;;
22634;SDS011;11484;50.858;4.384;2023-10-13T01:15:21;28.38;;;18.25;;
22634;SDS011;11484;50.858;4.384;2023-10-13T01:17:47;23.42;;;16.52;;
22634;SDS011;11484;50.858;4.384;2023-10-13T01:20:13;31.63;;;18.23;;
22634;SDS011;11484;50.858;4.384;2023-10-13T01:22:49;28.20;;;18.10;;
22634;SDS011;11484;50.858;4.384;2023-10-13T01:25:22;28.25;;;18.92;;
22634;SDS011;11484;50.858;4.384;2023-10-13T01:27:53;30.05;;;18.02;;
22634;SDS011;11484;50.858;4.384;2023-10-13T01:30:20;31.30;;;17.95;;
22634;SDS011;11484;50.858;4.384;2023-10-13T01:32:51;26.08;;;18.27;;
22634;SDS011;11484;50.858;4.384;2023-10-13T01:35:19;29.55;;;17.40;;
22634;SDS011;11484;50.858;4.384;2023-10-13T01:37:50;25.10;;;17.23;;
22634;SDS011;11484;50.858;4.384;2023-10-13T01:40:16;27.60;;;17.60;;
22634;SDS011;11484;50.858;4.384;2023-10-13T01:42:45;24.70;;;17.17;;
22634;SDS011;11484;50.858;4.384;2023-10-13T01:45:11;24.05;;;16.83;;
22634;SDS011;11484;50.858;4.384;2023-10-13T01:47:39;20.15;;;14.77;;
22634;SDS011;11484;50.858;4.384;2023-10-13T01:50:05;20.70;;;14.30;;
22634;SDS011;11484;50.858;4.384;2023-10-13T01:52:40;25.23;;;15.23;;
22634;SDS011;11484;50.858;4.384;2023-10-13T01:55:08;22.00;;;15.27;;
22634;SDS011;11484;50.858;4.384;2023-10-13T01:57:36;21.83;;;13.75;;
22634;SDS011;11484;50.858;4.384;2023-10-13T02:00:02;24.15;;;14.20;;
22634;SDS011;11484;50.858;4.384;2023-10-13T02:02:36;23.10;;;13.43;;
22634;SDS011;11484;50.858;4.384;2023-10-13T02:05:09;19.90;;;13.77;;
22634;SDS011;11484;50.858;4.384;2023-10-13T02:07:35;18.08;;;13.50;;
22634;SDS011;11484;50.858;4.384;2023-10-13T02:10:04;18.80;;;12.43;;
22634;SDS011;11484;50.858;4.384;2023-10-13T02:12:31;18.83;;;12.60;;
22634;SDS011;11484;50.858;4.384;2023-10-13T02:15:07;21.80;;;12.45;;
22634;SDS011;11484;50.858;4.384;2023-10-13T02:17:38;23.73;;;12.00;;
22634;SDS011;11484;50.858;4.384;2023-10-13T02:20:08;18.80;;;12.93;;
22634;SDS011;11484;50.858;4.384;2023-10-13T02:22:39;20.08;;;12.07;;
22634;SDS011;11484;50.858;4.384;2023-10-13T02:25:14;18.10;;;11.60;;
22634;SDS011;11484;50.858;4.384;2023-10-13T02:28:00;17.15;;;11.02;;
22634;SDS011;11484;50.858;4.384;2023-10-13T02:30:27;18.13;;;11.18;;
22634;SDS011;11484;50.858;4.384;2023-10-13T02:32:52;17.35;;;11.20;;
22634;SDS011;11484;50.858;4.384;2023-10-13T02:35:20;18.08;;;10.70;;
22634;SDS011;11484;50.858;4.384;2023-10-13T02:37:54;18.48;;;10.52;;
22634;SDS011;11484;50.858;4.384;2023-10-13T02:40:23;17.75;;;11.07;;
22634;SDS011;11484;50.858;4.384;2023-10-13T02:42:48;17.65;;;10.23;;
22634;SDS011;11484;50.858;4.384;2023-10-13T02:45:14;16.10;;;9.70;;
22634;SDS011;11484;50.858;4.384;2023-10-13T02:47:40;18.38;;;10.30;;
22634;SDS011;11484;50.858;4.384;2023-10-13T02:50:09;16.65;;;10.35;;
22634;SDS011;11484;50.858;4.384;2023-10-13T02:52:38;16.27;;;10.32;;
22634;SDS011;11484;50.858;4.384;2023-10-13T02:55:09;17.63;;;10.70;;
22634;SDS011;11484;50.858;4.384;2023-10-13T02:57:38;17.67;;;10.48;;
22634;SDS011;11484;50.858;4.384;2023-10-13T03:00:05;16.50;;;10.38;;
22634;SDS011;11484;50.858;4.384;2023-10-13T03:02:38;18.52;;;10.15;;
22634;SDS011;11484;50.858;4.384;2023-10-13T03:05:19;16.50;;;10.35;;
22634;SDS011;11484;50.858;4.384;2023-10-13T03:07:44;18.35;;;10.20;;
22634;SDS011;11484;50.858;4.384;2023-10-13T03:10:10;15.13;;;9.95;;
22634;SDS011;11484;50.858;4.384;2023-10-13T03:12:36;17.85;;;10.18;;
22634;SDS011;11484;50.858;4.384;2023-10-13T03:15:05;17.52;;;9.32;;
22634;SDS011;11484;50.858;4.384;2023-10-13T03:17:37;16.55;;;9.52;;
22634;SDS011;11484;50.858;4.384;2023-10-13T03:20:08;13.93;;;9.75;;
22634;SDS011;11484;50.858;4.384;2023-10-13T03:22:47;16.40;;;10.18;;
22634;SDS011;11484;50.858;4.384;2023-10-13T03:25:17;18.17;;;9.33;;
22634;SDS011;11484;50.858;4.384;2023-10-13T03:27:50;18.52;;;8.70;;
22634;SDS011;11484;50.858;4.384;2023-10-13T03:30:16;15.68;;;9.25;;
22634;SDS011;11484;50.858;4.384;2023-10-13T03:32:43;14.50;;;9.23;;
22634;SDS011;11484;50.858;4.384;2023-10-13T03:35:11;13.15;;;8.82;;
22634;SDS011;11484;50.858;4.384;2023-10-13T03:37:57;14.63;;;9.00;;
22634;SDS011;11484;50.858;4.384;2023-10-13T03:40:23;16.88;;;9.80;;
22634;SDS011;11484;50.858;4.384;2023-10-13T03:42:52;18.45;;;10.05;;
22634;SDS011;11484;50.858;4.384;2023-10-13T03:45:25;17.98;;;9.38;;
22634;SDS011;11484;50.858;4.384;2023-10-13T03:47:52;15.00;;;10.07;;
22634;SDS011;11484;50.858;4.384;2023-10-13T03:50:19;15.90;;;9.23;;
22634;SDS011;11484;50.858;4.384;2023-10-13T03:52:58;17.75;;;9.93;;
22634;SDS011;11484;50.858;4.384;2023-10-13T03:55:27;17.10;;;9.18;;
22634;SDS011;11484;50.858;4.384;2023-10-13T03:57:58;16.90;;;8.90;;
22634;SDS011;11484;50.858;4.384;2023-10-13T04:00:25;17.45;;;9.07;;
22634;SDS011;11484;50.858;4.384;2023-10-13T04:02:53;13.32;;;8.85;;
22634;SDS011;11484;50.858;4.384;2023-10-13T04:05:28;14.00;;;8.48;;
22634;SDS011;11484;50.858;4.384;2023-10-13T04:08:04;13.45;;;7.95;;
22634;SDS011;11484;50.858;4.384;2023-10-13T04:10:49;15.30;;;9.23;;
22634;SDS011;11484;50.858;4.384;2023-10-13T04:13:18;18.80;;;9.10;;
22634;SDS011;11484;50.858;4.384;2023-10-13T04:16:03;18.85;;;8.93;;
22634;SDS011;11484;50.858;4.384;2023-10-13T04:18:47;15.90;;;8.07;;
22634;SDS011;11484;50.858;4.384;2023-10-13T04:21:33;13.43;;;8.10;;
22634;SDS011;11484;50.858;4.384;2023-10-13T04:24:06;15.18;;;8.48;;
22634;SDS011;11484;50.858;4.384;2023-10-13T04:26:51;15.85;;;8.55;;
22634;SDS011;11484;50.858;4.384;2023-10-13T04:29:36;12.45;;;7.55;;
22634;SDS011;11484;50.858;4.384;2023-10-13T04:32:17;14.32;;;7.88;;
22634;SDS011;11484;50.858;4.384;2023-10-13T04:35:03;14.98;;;7.65;;
22634;SDS011;11484;50.858;4.384;2023-10-13T04:37:39;16.88;;;8.15;;
22634;SDS011;11484;50.858;4.384;2023-10-13T04:40:27;15.25;;;8.10;;
22634;SDS011;11484;50.858;4.384;2023-10-13T04:43:00;12.70;;;6.95;;
22634;SDS011;11484;50.858;4.384;2023-10-13T04:45:42;15.90;;;7.68;;
22634;SDS011;11484;50.858;4.384;2023-10-13T04:48:19;17.02;;;7.30;;
22634;SDS011;11484;50.858;4.384;2023-10-13T04:50:49;14.90;;;7.45;;
22634;SDS011;11484;50.858;4.384;2023-10-13T04:53:24;13.85;;;7.07;;
22634;SDS011;11484;50.858;4.384;2023-10-13T04:55:59;16.10;;;8.20;;
22634;SDS011;11484;50.858;4.384;2023-10-13T04:58:31;22.65;;;8.05;;
22634;SDS011;11484;50.858;4.384;2023-10-13T05:01:01;18.90;;;8.52;;
22634;SDS011;11484;50.858;4.384;2023-10-13T05:04:02;18.02;;;8.40;;
22634;SDS011;11484;50.858;4.384;2023-10-13T05:06:39;16.35;;;7.95;;
22634;SDS011;11484;50.858;4.384;2023-10-13T05:09:08;16.00;;;7.88;;
22634;SDS011;11484;50.858;4.384;2023-10-13T05:11:53;16.60;;;7.88;;
22634;SDS011;11484;50.858;4.384;2023-10-13T05:14:38;16.08;;;7.50;;
22634;SDS011;11484;50.858;4.384;2023-10-13T05:17:22;14.55;;;6.80;;
22634;SDS011;11484;50.858;4.384;2023-10-13T05:20:07;14.40;;;7.00;;
22634;SDS011;11484;50.858;4.384;2023-10-13T05:22:52;18.90;;;7.32;;
22634;SDS011;11484;50.858;4.384;2023-10-13T05:25:36;12.07;;;6.28;;
22634;SDS011;11484;50.858;4.384;2023-10-13T05:28:22;11.27;;;7.05;;
22634;SDS011;11484;50.858;4.384;2023-10-13T05:31:06;15.30;;;6.18;;
22634;SDS011;11484;50.858;4.384;2023-10-13T05:33:51;10.57;;;5.63;;
22634;SDS011;11484;50.858;4.384;2023-10-13T05:36:35;13.95;;;6.05;;
22634;SDS011;11484;50.858;4.384;2023-10-13T05:39:19;17.67;;;5.53;;
22634;SDS011;11484;50.858;4.384;2023-10-13T05:42:03;14.88;;;5.88;;
22634;SDS011;11484;50.858;4.384;2023-10-13T05:44:47;14.23;;;5.97;;
22634;SDS011;11484;50.858;4.384;2023-10-13T05:47:32;14.52;;;5.78;;
22634;SDS011;11484;50.858;4.384;2023-10-13T05:50:05;11.10;;;5.20;;
22634;SDS011;11484;50.858;4.384;2023-10-13T05:52:40;12.20;;;5.60;;
22634;SDS011;11484;50.858;4.384;2023-10-13T05:55:30;17.83;;;6.20;;
22634;SDS011;11484;50.858;4.384;2023-10-13T05:58:14;13.48;;;6.18;;
22634;SDS011;11484;50.858;4.384;2023-10-13T06:00:59;12.70;;;5.85;;
22634;SDS011;11484;50.858;4.384;2023-10-13T06:03:43;13.48;;;5.55;;
22634;SDS011;11484;50.858;4.384;2023-10-13T06:06:28;14.32;;;5.75;;
22634;SDS011;11484;50.858;4.384;2023-10-13T06:09:12;16.73;;;6.13;;
22634;SDS011;11484;50.858;4.384;2023-10-13T06:11:56;12.88;;;5.82;;
22634;SDS011;11484;50.858;4.384;2023-10-13T06:14:40;10.88;;;5.18;;
22634;SDS011;11484;50.858;4.384;2023-10-13T06:17:33;14.27;;;5.90;;
22634;SDS011;11484;50.858;4.384;2023-10-13T06:20:17;14.90;;;5.65;;
22634;SDS011;11484;50.858;4.384;2023-10-13T06:23:01;12.48;;;5.72;;
22634;SDS011;11484;50.858;4.384;2023-10-13T06:25:51;12.38;;;5.65;;
22634;SDS011;11484;50.858;4.384;2023-10-13T06:28:36;14.60;;;5.50;;
22634;SDS011;11484;50.858;4.384;2023-10-13T06:31:09;13.73;;;5.47;;
22634;SDS011;11484;50.858;4.384;2023-10-13T06:33:53;10.50;;;5.93;;
22634;SDS011;11484;50.858;4.384;2023-10-13T06:36:20;10.75;;;5.45;;
22634;SDS011;11484;50.858;4.384;2023-10-13T06:38:46;11.13;;;5.00;;
22634;SDS011;11484;50.858;4.384;2023-10-13T06:41:20;15.32;;;5.93;;
22634;SDS011;11484;50.858;4.384;2023-10-13T06:43:47;13.85;;;5.25;;
22634;SDS011;11484;50.858;4.384;2023-10-13T06:46:24;15.18;;;5.72;;
22634;SDS011;11484;50.858;4.384;2023-10-13T06:48:50;14.15;;;5.30;;
22634;SDS011;11484;50.858;4.384;2023-10-13T06:51:19;12.43;;;5.55;;
22634;SDS011;11484;50.858;4.384;2023-10-13T06:53:50;15.90;;;7.15;;
22634;SDS011;11484;50.858;4.384;2023-10-13T06:56:21;12.27;;;5.85;;
22634;SDS011;11484;50.858;4.384;2023-10-13T06:58:50;15.02;;;5.47;;
22634;SDS011;11484;50.858;4.384;2023-10-13T07:01:16;12.27;;;5.38;;
22634;SDS011;11484;50.858;4.384;2023-10-13T07:03:46;12.95;;;5.30;;
22634;SDS011;11484;50.858;4.384;2023-10-13T07:06:18;12.43;;;4.57;;
22634;SDS011;11484;50.858;4.384;2023-10-13T07:08:45;16.25;;;6.28;;
22634;SDS011;11484;50.858;4.384;2023-10-13T07:11:17;13.52;;;5.80;;
22634;SDS011;11484;50.858;4.384;2023-10-13T07:13:58;15.50;;;5.85;;
22634;SDS011;11484;50.858;4.384;2023-10-13T07:16:54;9.68;;;4.90;;
22634;SDS011;11484;50.858;4.384;2023-10-13T07:19:25;13.50;;;5.13;;
22634;SDS011;11484;50.858;4.384;2023-10-13T07:21:54;15.00;;;5.85;;
22634;SDS011;11484;50.858;4.384;2023-10-13T07:24:44;17.42;;;5.78;;
22634;SDS011;11484;50.858;4.384;2023-10-13T07:27:20;12.30;;;5.55;;
22634;SDS011;11484;50.858;4.384;2023-10-13T07:29:50;19.88;;;6.43;;
22634;SDS011;11484;50.858;4.384;2023-10-13T07:32:38;17.25;;;5.97;;
22634;SDS011;11484;50.858;4.384;2023-10-13T07:35:14;14.98;;;5.82;;
22634;SDS011;11484;50.858;4.384;2023-10-13T07:37:43;13.57;;;6.18;;
22634;SDS011;11484;50.858;4.384;2023-10-13T07:40:09;13.15;;;5.68;;
22634;SDS011;11484;50.858;4.384;2023-10-13T07:43:08;14.75;;;5.90;;
22634;SDS011;11484;50.858;4.384;2023-10-13T07:45:37;15.30;;;6.18;;
22634;SDS011;11484;50.858;4.384;2023-10-13T07:48:05;13.98;;;5.40;;
22634;SDS011;11484;50.858;4.384;2023-10-13T07:53:47;15.35;;;5.25;;
22634;SDS011;11484;50.858;4.384;2023-10-13T07:58:44;15.50;;;5.72;;
22634;SDS011;11484;50.858;4.384;2023-10-13T08:01:25;12.27;;;5.80;;
22634;SDS011;11484;50.858;4.384;2023-10-13T08:03:51;16.17;;;5.95;;
22634;SDS011;11484;50.858;4.384;2023-10-13T08:06:36;13.52;;;5.57;;
22634;SDS011;11484;50.858;4.384;2023-10-13T08:09:11;11.93;;;5.28;;
22634;SDS011;11484;50.858;4.384;2023-10-13T08:11:56;15.63;;;5.25;;
22634;SDS011;11484;50.858;4.384;2023-10-13T08:14:22;10.68;;;5.15;;
22634;SDS011;11484;50.858;4.384;2023-10-13T08:16:48;16.83;;;5.40;;
22634;SDS011;11484;50.858;4.384;2023-10-13T08:19:25;10.10;;;4.78;;
22634;SDS011;11484;50.858;4.384;2023-10-13T08:21:52;11.57;;;5.72;;
22634;SDS011;11484;50.858;4.384;2023-10-13T08:24:25;16.33;;;5.18;;
22634;SDS011;11484;50.858;4.384;2023-10-13T08:27:11;14.48;;;5.45;;
22634;SDS011;11484;50.858;4.384;2023-10-13T08:29:57;17.05;;;5.50;;
22634;SDS011;11484;50.858;4.384;2023-10-13T08:32:26;13.45;;;6.10;;
22634;SDS011;11484;50.858;4.384;2023-10-13T08:34:53;12.70;;;5.78;;
22634;SDS011;11484;50.858;4.384;2023-10-13T08:37:20;15.57;;;5.82;;
22634;SDS011;11484;50.858;4.384;2023-10-13T08:39:46;13.15;;;5.47;;
22634;SDS011;11484;50.858;4.384;2023-10-13T08:42:28;15.95;;;6.07;;
22634;SDS011;11484;50.858;4.384;2023-10-13T08:45:05;11.60;;;5.63;;
22634;SDS011;11484;50.858;4.384;2023-10-13T08:47:52;17.13;;;6.13;;
22634;SDS011;11484;50.858;4.384;2023-10-13T08:50:32;12.85;;;5.70;;
22634;SDS011;11484;50.858;4.384;2023-10-13T08:53:23;17.45;;;6.07;;
22634;SDS011;11484;50.858;4.384;2023-10-13T08:55:59;14.07;;;5.55;;
22634;SDS011;11484;50.858;4.384;2023-10-13T08:58:35;12.35;;;5.70;;
22634;SDS011;11484;50.858;4.384;2023-10-13T09:01:20;11.50;;;5.50;;
22634;SDS011;11484;50.858;4.384;2023-10-13T09:04:07;13.05;;;5.38;;
22634;SDS011;11484;50.858;4.384;2023-10-13T09:06:52;12.38;;;5.38;;
22634;SDS011;11484;50.858;4.384;2023-10-13T09:09:24;16.80;;;6.38;;
22634;SDS011;11484;50.858;4.384;2023-10-13T09:12:00;10.75;;;5.55;;
22634;SDS011;11484;50.858;4.384;2023-10-13T09:14:42;14.23;;;6.00;;
22634;SDS011;11484;50.858;4.384;2023-10-13T09:17:22;12.52;;;6.07;;
22634;SDS011;11484;50.858;4.384;2023-10-13T09:22:48;10.20;;;6.13;;
22634;SDS011;11484;50.858;4.384;2023-10-13T09:25:27;12.13;;;6.22;;
22634;SDS011;11484;50.858;4.384;2023-10-13T09:28:00;13.10;;;6.05;;
22634;SDS011;11484;50.858;4.384;2023-10-13T09:30:27;14.40;;;6.28;;
22634;SDS011;11484;50.858;4.384;2023-10-13T09:33:03;16.48;;;6.28;;
22634;SDS011;11484;50.858;4.384;2023-10-13T09:35:29;13.57;;;5.70;;
22634;SDS011;11484;50.858;4.384;2023-10-13T09:37:59;17.00;;;5.65;;
22634;SDS011;11484;50.858;4.384;2023-10-13T09:40:27;14.15;;;6.13;;
22634;SDS011;11484;50.858;4.384;2023-10-13T09:43:03;14.05;;;5.97;;
22634;SDS011;11484;50.858;4.384;2023-10-13T09:45:40;11.65;;;6.07;;
22634;SDS011;11484;50.858;4.384;2023-10-13T09:48:21;18.08;;;6.00;;
22634;SDS011;11484;50.858;4.384;2023-10-13T09:50:53;16.10;;;6.40;;
22634;SDS011;11484;50.858;4.384;2023-10-13T09:55:55;14.80;;;6.78;;
22634;SDS011;11484;50.858;4.384;2023-10-13T09:58:36;14.80;;;6.18;;
22634;SDS011;11484;50.858;4.384;2023-10-13T10:01:12;13.57;;;6.30;;
22634;SDS011;11484;50.858;4.384;2023-10-13T10:03:46;12.20;;;5.60;;
22634;SDS011;11484;50.858;4.384;2023-10-13T10:06:32;15.32;;;6.57;;
22634;SDS011;11484;50.858;4.384;2023-10-13T10:09:05;15.38;;;7.13;;
22634;SDS011;11484;50.858;4.384;2023-10-13T10:11:57;14.02;;;5.95;;
22634;SDS011;11484;50.858;4.384;2023-10-13T10:17:24;12.48;;;6.45;;
22634;SDS011;11484;50.858;4.384;2023-10-13T10:19:54;15.93;;;5.75;;
22634;SDS011;11484;50.858;4.384;2023-10-13T10:22:30;11.00;;;5.68;;
22634;SDS011;11484;50.858;4.384;2023-10-13T10:25:03;11.50;;;5.75;;
22634;SDS011;11484;50.858;4.384;2023-10-13T10:27:32;16.98;;;6.75;;
22634;SDS011;11484;50.858;4.384;2023-10-13T10:29:59;19.00;;;6.07;;
22634;SDS011;11484;50.858;4.384;2023-10-13T10:32:32;14.50;;;6.47;;
22634;SDS011;11484;50.858;4.384;2023-10-13T10:35:08;12.25;;;5.95;;
22634;SDS011;11484;50.858;4.384;2023-10-13T10:37:45;14.75;;;6.13;;
22634;SDS011;11484;50.858;4.384;2023-10-13T10:40:14;16.27;;;5.85;;
22634;SDS011;11484;50.858;4.384;2023-10-13T10:43:01;18.10;;;6.35;;
22634;SDS011;11484;50.858;4.384;2023-10-13T10:45:33;23.60;;;7.90;;
22634;SDS011;11484;50.858;4.384;2023-10-13T10:48:00;22.92;;;5.97;;
22634;SDS011;11484;50.858;4.384;2023-10-13T10:50:41;18.45;;;6.25;;
22634;SDS011;11484;50.858;4.384;2023-10-13T10:53:07;16.27;;;5.72;;
22634;SDS011;11484;50.858;4.384;2023-10-13T10:55:34;17.67;;;6.07;;
22634;SDS011;11484;50.858;4.384;2023-10-13T10:58:01;12.40;;;5.95;;
22634;SDS011;11484;50.858;4.384;2023-10-13T11:00:31;18.93;;;6.03;;
22634;SDS011;11484;50.858;4.384;2023-10-13T11:03:15;17.13;;;6.00;;
22634;SDS011;11484;50.858;4.384;2023-10-13T11:05:45;18.58;;;6.40;;
22634;SDS011;11484;50.858;4.384;2023-10-13T11:08:24;14.25;;;6.28;;
22634;SDS011;11484;50.858;4.384;2023-10-13T11:11:02;18.20;;;6.40;;
22634;SDS011;11484;50.858;4.384;2023-10-13T11:13:42;16.25;;;6.32;;
22634;SDS011;11484;50.858;4.384;2023-10-13T11:16:34;14.55;;;6.07;;
22634;SDS011;11484;50.858;4.384;2023-10-13T11:19:03;18.95;;;6.90;;
22634;SDS011;11484;50.858;4.384;2023-10-13T11:21:32;15.70;;;6.25;;
22634;SDS011;11484;50.858;4.384;2023-10-13T11:23:57;18.67;;;6.50;;
22634;SDS011;11484;50.858;4.384;2023-10-13T11:26:34;15.82;;;6.20;;
22634;SDS011;11484;50.858;4.384;2023-10-13T11:29:01;17.52;;;5.85;;
22634;SDS011;11484;50.858;4.384;2023-10-13T11:31:35;17.42;;;6.30;;
22634;SDS011;11484;50.858;4.384;2023-10-13T11:34:02;16.48;;;6.35;;
22634;SDS011;11484;50.858;4.384;2023-10-13T11:36:30;12.95;;;6.38;;
22634;SDS011;11484;50.858;4.384;2023-10-13T11:38:58;17.40;;;5.97;;
22634;SDS011;11484;50.858;4.384;2023-10-13T11:41:24;16.50;;;5.85;;
22634;SDS011;11484;50.858;4.384;2023-10-13T11:43:58;13.63;;;6.20;;
22634;SDS011;11484;50.858;4.384;2023-10-13T11:46:39;12.45;;;5.53;;
22634;SDS011;11484;50.858;4.384;2023-10-13T11:49:13;17.02;;;6.70;;
22634;SDS011;11484;50.858;4.384;2023-10-13T11:51:50;12.90;;;5.40;;
22634;SDS011;11484;50.858;4.384;2023-10-13T11:54:19;11.38;;;5.13;;
22634;SDS011;11484;50.858;4.384;2023-10-13T11:56:48;14.27;;;5.85;;
22634;SDS011;11484;50.858;4.384;2023-10-13T11:59:14;14.93;;;6.22;;
22634;SDS011;11484;50.858;4.384;2023-10-13T12:01:44;13.48;;;5.55;;
22634;SDS011;11484;50.858;4.384;2023-10-13T12:04:32;13.95;;;5.68;;
22634;SDS011;11484;50.858;4.384;2023-10-13T12:07:20;16.73;;;5.93;;
22634;SDS011;11484;50.858;4.384;2023-10-13T12:09:51;14.98;;;5.65;;
22634;SDS011;11484;50.858;4.384;2023-10-13T12:12:24;13.40;;;5.77;;
22634;SDS011;11484;50.858;4.384;2023-10-13T12:17:21;13.80;;;5.38;;
22634;SDS011;11484;50.858;4.384;2023-10-13T12:19:56;17.70;;;6.47;;
22634;SDS011;11484;50.858;4.384;2023-10-13T12:22:24;13.60;;;5.15;;
22634;SDS011;11484;50.858;4.384;2023-10-13T12:24:53;14.10;;;5.68;;
22634;SDS011;11484;50.858;4.384;2023-10-13T12:27:21;12.73;;;5.30;;
22634;SDS011;11484;50.858;4.384;2023-10-13T12:30:00;15.27;;;6.43;;
22634;SDS011;11484;50.858;4.384;2023-10-13T12:32:33;15.45;;;6.45;;
22634;SDS011;11484;50.858;4.384;2023-10-13T12:35:00;11.75;;;6.15;;
22634;SDS011;11484;50.858;4.384;2023-10-13T12:37:31;13.98;;;5.57;;
22634;SDS011;11484;50.858;4.384;2023-10-13T12:40:01;13.80;;;6.00;;
22634;SDS011;11484;50.858;4.384;2023-10-13T12:43:06;9.73;;;5.22;;
22634;SDS011;11484;50.858;4.384;2023-10-13T12:45:50;15.95;;;5.43;;
22634;SDS011;11484;50.858;4.384;2023-10-13T12:48:35;12.18;;;5.15;;
22634;SDS011;11484;50.858;4.384;2023-10-13T12:51:21;14.65;;;5.43;;
22634;SDS011;11484;50.858;4.384;2023-10-13T12:53:56;19.92;;;15.93;;
22634;SDS011;11484;50.858;4.384;2023-10-13T12:56:29;17.00;;;6.15;;
22634;SDS011;11484;50.858;4.384;2023-10-13T12:58:55;14.35;;;5.47;;
22634;SDS011;11484;50.858;4.384;2023-10-13T13:01:22;13.18;;;5.63;;
22634;SDS011;11484;50.858;4.384;2023-10-13T13:03:57;12.13;;;5.38;;
22634;SDS011;11484;50.858;4.384;2023-10-13T13:06:24;12.27;;;5.03;;
22634;SDS011;11484;50.858;4.384;2023-10-13T13:08:52;13.20;;;5.53;;
22634;SDS011;11484;50.858;4.384;2023-10-13T13:11:27;10.75;;;5.20;;
22634;SDS011;11484;50.858;4.384;2023-10-13T13:13:56;13.23;;;5.35;;
22634;SDS011;11484;50.858;4.384;2023-10-13T13:16:22;14.63;;;5.65;;
22634;SDS011;11484;50.858;4.384;2023-10-13T13:18:55;14.70;;;5.30;;
22634;SDS011;11484;50.858;4.384;2023-10-13T13:21:21;16.20;;;5.93;;
22634;SDS011;11484;50.858;4.384;2023-10-13T13:23:50;15.85;;;6.03;;
22634;SDS011;11484;50.858;4.384;2023-10-13T13:26:19;11.88;;;4.90;;
22634;SDS011;11484;50.858;4.384;2023-10-13T13:28:48;12.30;;;5.47;;
22634;SDS011;11484;50.858;4.384;2023-10-13T13:31:18;13.20;;;6.10;;
22634;SDS011;11484;50.858;4.384;2023-10-13T13:33:51;13.80;;;5.60;;
22634;SDS011;11484;50.858;4.384;2023-10-13T13:36:18;10.40;;;5.15;;
22634;SDS011;11484;50.858;4.384;2023-10-13T13:38:44;11.93;;;5.07;;
22634;SDS011;11484;50.858;4.384;2023-10-13T13:41:19;11.35;;;4.93;;
22634;SDS011;11484;50.858;4.384;2023-10-13T13:43:47;12.10;;;5.40;;
22634;SDS011;11484;50.858;4.384;2023-10-13T13:46:26;9.98;;;5.40;;
22634;SDS011;11484;50.858;4.384;2023-10-13T13:48:58;11.25;;;5.05;;
22634;SDS011;11484;50.858;4.384;2023-10-13T13:51:28;10.75;;;5.35;;
22634;SDS011;11484;50.858;4.384;2023-10-13T13:53:56;11.85;;;4.95;;
22634;SDS011;11484;50.858;4.384;2023-10-13T13:56:23;9.07;;;4.95;;
22634;SDS011;11484;50.858;4.384;2023-10-13T13:58:52;9.25;;;4.80;;
22634;SDS011;11484;50.858;4.384;2023-10-13T14:01:18;9.05;;;4.88;;
22634;SDS011;11484;50.858;4.384;2023-10-13T14:03:50;13.05;;;5.50;;
22634;SDS011;11484;50.858;4.384;2023-10-13T14:06:17;10.20;;;5.38;;
22634;SDS011;11484;50.858;4.384;2023-10-13T14:08:56;11.02;;;5.05;;
22634;SDS011;11484;50.858;4.384;2023-10-13T14:11:26;17.38;;;6.50;;
22634;SDS011;11484;50.858;4.384;2023-10-13T14:14:03;15.55;;;6.13;;
22634;SDS011;11484;50.858;4.384;2023-10-13T14:16:54;11.65;;;4.93;;
22634;SDS011;11484;50.858;4.384;2023-10-13T14:19:28;14.63;;;6.22;;
22634;SDS011;11484;50.858;4.384;2023-10-13T14:21:54;16.52;;;6.03;;
22634;SDS011;11484;50.858;4.384;2023-10-13T14:24:24;12.25;;;5.30;;
22634;SDS011;11484;50.858;4.384;2023-10-13T14:26:56;9.43;;;5.17;;
22634;SDS011;11484;50.858;4.384;2023-10-13T14:32:06;12.18;;;5.20;;
22634;SDS011;11484;50.858;4.384;2023-10-13T14:34:37;11.32;;;5.47;;
22634;SDS011;11484;50.858;4.384;2023-10-13T14:37:04;14.45;;;5.18;;
22634;SDS011;11484;50.858;4.384;2023-10-13T14:39:30;11.93;;;6.32;;
22634;SDS011;11484;50.858;4.384;2023-10-13T14:41:59;11.55;;;5.43;;
22634;SDS011;11484;50.858;4.384;2023-10-13T14:44:30;13.52;;;5.45;;
22634;SDS011;11484;50.858;4.384;2023-10-13T14:47:00;13.35;;;5.53;;
22634;SDS011;11484;50.858;4.384;2023-10-13T14:49:27;18.10;;;5.95;;
22634;SDS011;11484;50.858;4.384;2023-10-13T14:51:53;11.57;;;5.15;;
22634;SDS011;11484;50.858;4.384;2023-10-13T14:54:20;12.50;;;5.80;;
22634;SDS011;11484;50.858;4.384;2023-10-13T14:56:58;12.65;;;5.78;;
22634;SDS011;11484;50.858;4.384;2023-10-13T14:59:27;13.55;;;6.22;;
22634;SDS011;11484;50.858;4.384;2023-10-13T15:01:58;8.98;;;5.20;;
22634;SDS011;11484;50.858;4.384;2023-10-13T15:04:29;10.40;;;5.35;;
22634;SDS011;11484;50.858;4.384;2023-10-13T15:06:58;10.30;;;5.05;;
22634;SDS011;11484;50.858;4.384;2023-10-13T15:09:26;9.80;;;5.15;;
22634;SDS011;11484;50.858;4.384;2023-10-13T15:11:53;10.32;;;4.85;;
22634;SDS011;11484;50.858;4.384;2023-10-13T15:14:19;9.27;;;5.03;;
22634;SDS011;11484;50.858;4.384;2023-10-13T15:16:48;10.85;;;5.75;;
22634;SDS011;11484;50.858;4.384;2023-10-13T15:19:14;8.05;;;5.22;;
22634;SDS011;11484;50.858;4.384;2023-10-13T15:21:43;9.68;;;4.90;;
22634;SDS011;11484;50.858;4.384;2023-10-13T15:26:40;9.95;;;5.65;;
22634;SDS011;11484;50.858;4.384;2023-10-13T15:29:10;11.90;;;6.75;;
22634;SDS011;11484;50.858;4.384;2023-10-13T15:31:40;12.98;;;5.68;;
22634;SDS011;11484;50.858;4.384;2023-10-13T15:34:11;10.98;;;5.80;;
22634;SDS011;11484;50.858;4.384;2023-10-13T15:36:40;10.63;;;5.53;;